sensor_id;sensor_type;location;lat;lon;timestamp;pressure;altitude;pressure_sealevel;temperature;humidity
59106;BME280;44891;50.204;8.132;2023-02-05T00:02:43;100156.59;;;2.67;85.24
59106;BME280;44891;50.204;8.132;2023-02-05T00:06:45;100171.19;;;2.68;85.16
59106;BME280;44891;50.204;8.132;2023-02-05T00:10:51;100172.56;;;2.43;85.41
59106;BME280;44891;50.204;8.132;2023-02-05T00:14:53;100179.69;;;2.22;87.13
59106;BME280;44891;50.204;8.132;2023-02-05T00:18:55;100167.00;;;2.28;86.78
59106;BME280;44891;50.204;8.132;2023-02-05T00:22:57;100172.44;;;2.35;86.85
59106;BME280;44891;50.204;8.132;2023-02-05T00:27:00;100174.66;;;2.39;86.33
59106;BME280;44891;50.204;8.132;2023-02-05T00:31:05;100179.84;;;2.39;86.70
59106;BME280;44891;50.204;8.132;2023-02-05T00:35:07;100180.91;;;2.37;87.17
59106;BME280;44891;50.204;8.132;2023-02-05T00:39:09;100109.00;;;2.10;87.09
59106;BME280;44891;50.204;8.132;2023-02-05T00:43:15;100154.56;;;2.61;86.48
59106;BME280;44891;50.204;8.132;2023-02-05T00:47:16;100155.78;;;2.66;86.31
59106;BME280;44891;50.204;8.132;2023-02-05T00:51:18;100138.84;;;2.62;86.03
59106;BME280;44891;50.204;8.132;2023-02-05T00:55:20;100134.22;;;2.66;86.66
59106;BME280;44891;50.204;8.132;2023-02-05T00:59:24;100131.47;;;2.67;87.64
59106;BME280;44891;50.204;8.132;2023-02-05T01:03:25;100121.75;;;2.79;87.01
59106;BME280;44891;50.204;8.132;2023-02-05T01:07:27;100119.41;;;2.86;87.23
59106;BME280;44891;50.204;8.132;2023-02-05T01:11:29;100114.31;;;2.94;87.06
59106;BME280;44891;50.204;8.132;2023-02-05T01:15:33;100109.03;;;2.86;86.97
59106;BME280;44891;50.204;8.132;2023-02-05T01:19:35;100096.31;;;2.92;86.67
59106;BME280;44891;50.204;8.132;2023-02-05T01:23:37;100096.16;;;2.94;86.93
59106;BME280;44891;50.204;8.132;2023-02-05T01:27:39;100106.94;;;2.99;86.60
59106;BME280;44891;50.204;8.132;2023-02-05T01:31:42;100098.03;;;3.02;86.40
59106;BME280;44891;50.204;8.132;2023-02-05T01:35:44;100091.38;;;2.99;86.13
59106;BME280;44891;50.204;8.132;2023-02-05T01:39:46;100080.09;;;3.08;86.50
59106;BME280;44891;50.204;8.132;2023-02-05T01:44:05;100076.66;;;3.17;86.14
59106;BME280;44891;50.204;8.132;2023-02-05T01:48:09;100072.66;;;3.23;85.85
59106;BME280;44891;50.204;8.132;2023-02-05T01:52:12;100077.94;;;3.04;87.24
59106;BME280;44891;50.204;8.132;2023-02-05T01:56:16;100072.47;;;3.07;87.82
59106;BME280;44891;50.204;8.132;2023-02-05T02:00:19;100074.50;;;3.13;87.95
59106;BME280;44891;50.204;8.132;2023-02-05T02:04:26;100070.38;;;3.10;88.09
59106;BME280;44891;50.204;8.132;2023-02-05T02:08:33;100057.13;;;3.13;89.11
59106;BME280;44891;50.204;8.132;2023-02-05T02:12:36;100046.25;;;3.27;88.37
59106;BME280;44891;50.204;8.132;2023-02-05T02:16:39;100035.38;;;3.24;88.21
59106;BME280;44891;50.204;8.132;2023-02-05T02:20:42;100029.50;;;3.40;89.08
59106;BME280;44891;50.204;8.132;2023-02-05T02:24:49;100023.13;;;3.52;86.92
59106;BME280;44891;50.204;8.132;2023-02-05T02:28:55;100025.75;;;3.70;86.51
59106;BME280;44891;50.204;8.132;2023-02-05T02:33:02;100027.00;;;3.84;85.38
59106;BME280;44891;50.204;8.132;2023-02-05T02:37:06;100024.16;;;3.95;84.57
59106;BME280;44891;50.204;8.132;2023-02-05T02:41:10;100016.72;;;4.00;83.51
59106;BME280;44891;50.204;8.132;2023-02-05T02:45:15;100014.44;;;3.97;83.46
59106;BME280;44891;50.204;8.132;2023-02-05T02:49:20;100005.88;;;4.04;83.12
59106;BME280;44891;50.204;8.132;2023-02-05T02:53:24;99995.31;;;4.06;82.50
59106;BME280;44891;50.204;8.132;2023-02-05T02:57:27;99998.13;;;4.13;83.22
59106;BME280;44891;50.204;8.132;2023-02-05T03:01:31;100012.97;;;4.20;83.45
59106;BME280;44891;50.204;8.132;2023-02-05T03:05:35;100017.50;;;4.18;84.47
59106;BME280;44891;50.204;8.132;2023-02-05T03:09:41;100014.53;;;4.13;84.85
59106;BME280;44891;50.204;8.132;2023-02-05T03:13:44;100008.88;;;4.18;85.00
59106;BME280;44891;50.204;8.132;2023-02-05T03:17:48;100001.94;;;4.26;83.74
59106;BME280;44891;50.204;8.132;2023-02-05T03:21:53;100012.72;;;4.31;83.23
59106;BME280;44891;50.204;8.132;2023-02-05T03:25:56;100004.91;;;4.31;83.29
59106;BME280;44891;50.204;8.132;2023-02-05T03:30:07;99982.47;;;4.30;83.48
59106;BME280;44891;50.204;8.132;2023-02-05T03:34:15;99934.88;;;4.04;83.20
59106;BME280;44891;50.204;8.132;2023-02-05T03:38:25;99992.31;;;4.45;82.90
59106;BME280;44891;50.204;8.132;2023-02-05T03:42:33;100005.13;;;4.38;83.39
59106;BME280;44891;50.204;8.132;2023-02-05T03:46:39;100019.53;;;4.32;84.37
59106;BME280;44891;50.204;8.132;2023-02-05T03:50:50;100023.78;;;4.33;85.02
59106;BME280;44891;50.204;8.132;2023-02-05T03:54:56;100028.38;;;4.40;85.67
59106;BME280;44891;50.204;8.132;2023-02-05T03:59:03;99996.97;;;4.41;85.34
59106;BME280;44891;50.204;8.132;2023-02-05T04:03:06;99994.06;;;4.36;85.43
59106;BME280;44891;50.204;8.132;2023-02-05T04:07:11;100001.56;;;4.47;84.78
59106;BME280;44891;50.204;8.132;2023-02-05T04:11:14;100002.59;;;4.54;84.36
59106;BME280;44891;50.204;8.132;2023-02-05T04:15:18;99991.50;;;4.44;85.41
59106;BME280;44891;50.204;8.132;2023-02-05T04:19:24;99990.06;;;4.50;85.88
59106;BME280;44891;50.204;8.132;2023-02-05T04:23:29;99996.75;;;4.60;85.35
59106;BME280;44891;50.204;8.132;2023-02-05T04:27:31;99983.09;;;4.58;86.01
59106;BME280;44891;50.204;8.132;2023-02-05T04:31:35;99975.09;;;4.52;86.81
59106;BME280;44891;50.204;8.132;2023-02-05T04:35:38;99966.31;;;4.53;88.03
59106;BME280;44891;50.204;8.132;2023-02-05T04:39:41;99966.13;;;4.46;90.57
59106;BME280;44891;50.204;8.132;2023-02-05T04:43:43;99971.50;;;4.45;91.41
59106;BME280;44891;50.204;8.132;2023-02-05T04:47:45;99979.50;;;4.51;90.99
59106;BME280;44891;50.204;8.132;2023-02-05T04:51:47;99977.53;;;4.53;92.04
59106;BME280;44891;50.204;8.132;2023-02-05T04:55:50;99976.06;;;4.51;92.28
59106;BME280;44891;50.204;8.132;2023-02-05T04:59:54;99989.19;;;4.41;94.46
59106;BME280;44891;50.204;8.132;2023-02-05T05:03:56;99979.09;;;4.38;95.69
59106;BME280;44891;50.204;8.132;2023-02-05T05:07:58;99971.38;;;4.28;96.01
59106;BME280;44891;50.204;8.132;2023-02-05T05:12:01;99979.53;;;4.25;96.70
59106;BME280;44891;50.204;8.132;2023-02-05T05:16:03;99991.06;;;4.23;97.98
59106;BME280;44891;50.204;8.132;2023-02-05T05:20:06;99991.88;;;4.23;97.22
59106;BME280;44891;50.204;8.132;2023-02-05T05:24:08;99991.34;;;4.20;97.75
59106;BME280;44891;50.204;8.132;2023-02-05T05:28:11;99977.88;;;4.24;96.86
59106;BME280;44891;50.204;8.132;2023-02-05T05:32:13;99980.16;;;4.27;96.98
59106;BME280;44891;50.204;8.132;2023-02-05T05:36:15;99979.19;;;4.28;96.89
59106;BME280;44891;50.204;8.132;2023-02-05T05:40:17;99980.56;;;4.15;97.90
59106;BME280;44891;50.204;8.132;2023-02-05T05:44:38;99987.53;;;4.32;98.37
59106;BME280;44891;50.204;8.132;2023-02-05T05:48:40;99997.88;;;4.24;100.00
59106;BME280;44891;50.204;8.132;2023-02-05T05:52:42;99990.91;;;4.24;100.00
59106;BME280;44891;50.204;8.132;2023-02-05T05:56:43;99999.19;;;4.28;100.00
59106;BME280;44891;50.204;8.132;2023-02-05T06:00:47;100001.53;;;4.13;100.00
59106;BME280;44891;50.204;8.132;2023-02-05T06:04:48;99990.06;;;3.98;100.00
59106;BME280;44891;50.204;8.132;2023-02-05T06:08:50;99983.13;;;4.06;100.00
59106;BME280;44891;50.204;8.132;2023-02-05T06:12:52;99979.81;;;4.22;100.00
59106;BME280;44891;50.204;8.132;2023-02-05T06:16:56;99984.09;;;4.05;100.00
59106;BME280;44891;50.204;8.132;2023-02-05T06:20:58;99983.25;;;3.97;100.00
59106;BME280;44891;50.204;8.132;2023-02-05T06:25:01;99980.84;;;4.03;100.00
59106;BME280;44891;50.204;8.132;2023-02-05T06:29:04;99977.94;;;4.06;100.00
59106;BME280;44891;50.204;8.132;2023-02-05T06:33:07;99970.09;;;3.98;100.00
59106;BME280;44891;50.204;8.132;2023-02-05T06:37:11;99980.03;;;4.03;100.00
59106;BME280;44891;50.204;8.132;2023-02-05T06:41:13;99980.31;;;4.00;100.00
59106;BME280;44891;50.204;8.132;2023-02-05T06:45:15;99967.25;;;4.09;100.00
59106;BME280;44891;50.204;8.132;2023-02-05T06:49:18;99956.47;;;4.04;100.00
59106;BME280;44891;50.204;8.132;2023-02-05T06:53:20;99959.25;;;4.03;100.00
59106;BME280;44891;50.204;8.132;2023-02-05T06:57:22;99963.88;;;4.17;100.00
59106;BME280;44891;50.204;8.132;2023-02-05T07:01:23;99961.41;;;4.16;100.00
59106;BME280;44891;50.204;8.132;2023-02-05T07:05:27;99966.31;;;4.19;100.00
59106;BME280;44891;50.204;8.132;2023-02-05T07:09:28;99970.50;;;4.12;100.00
59106;BME280;44891;50.204;8.132;2023-02-05T07:13:30;99984.56;;;4.01;100.00
59106;BME280;44891;50.204;8.132;2023-02-05T07:17:32;99973.56;;;3.89;100.00
59106;BME280;44891;50.204;8.132;2023-02-05T07:21:35;99977.91;;;3.80;100.00
59106;BME280;44891;50.204;8.132;2023-02-05T07:25:37;99969.72;;;3.93;100.00
59106;BME280;44891;50.204;8.132;2023-02-05T07:29:39;99968.34;;;4.07;100.00
59106;BME280;44891;50.204;8.132;2023-02-05T07:33:41;99965.84;;;4.23;100.00
59106;BME280;44891;50.204;8.132;2023-02-05T07:37:45;99961.31;;;4.25;100.00
59106;BME280;44891;50.204;8.132;2023-02-05T07:41:46;99956.91;;;4.26;100.00
59106;BME280;44891;50.204;8.132;2023-02-05T07:46:00;99973.91;;;4.12;100.00
59106;BME280;44891;50.204;8.132;2023-02-05T07:50:02;99971.16;;;4.14;100.00
59106;BME280;44891;50.204;8.132;2023-02-05T07:54:07;99962.53;;;4.13;100.00
59106;BME280;44891;50.204;8.132;2023-02-05T07:58:09;99955.06;;;4.10;100.00
59106;BME280;44891;50.204;8.132;2023-02-05T08:02:11;99953.28;;;4.11;100.00
59106;BME280;44891;50.204;8.132;2023-02-05T08:06:13;99947.47;;;4.17;100.00
59106;BME280;44891;50.204;8.132;2023-02-05T08:10:17;99942.28;;;4.25;100.00
59106;BME280;44891;50.204;8.132;2023-02-05T08:14:19;99936.00;;;4.35;100.00
59106;BME280;44891;50.204;8.132;2023-02-05T08:18:21;99926.47;;;4.44;100.00
59106;BME280;44891;50.204;8.132;2023-02-05T08:22:23;99927.28;;;4.45;100.00
59106;BME280;44891;50.204;8.132;2023-02-05T08:26:26;99923.88;;;4.52;100.00
59106;BME280;44891;50.204;8.132;2023-02-05T08:30:28;99921.09;;;4.46;100.00
59106;BME280;44891;50.204;8.132;2023-02-05T08:34:30;99919.69;;;4.59;100.00
59106;BME280;44891;50.204;8.132;2023-02-05T08:38:32;99930.22;;;4.50;100.00
59106;BME280;44891;50.204;8.132;2023-02-05T08:42:35;99922.91;;;4.53;100.00
59106;BME280;44891;50.204;8.132;2023-02-05T08:46:37;99928.28;;;4.60;100.00
59106;BME280;44891;50.204;8.132;2023-02-05T08:50:43;99920.00;;;4.56;100.00
59106;BME280;44891;50.204;8.132;2023-02-05T08:54:45;99934.81;;;4.56;100.00
59106;BME280;44891;50.204;8.132;2023-02-05T08:58:50;99930.44;;;4.64;100.00
59106;BME280;44891;50.204;8.132;2023-02-05T09:02:52;99931.44;;;4.72;100.00
59106;BME280;44891;50.204;8.132;2023-02-05T09:06:53;99925.53;;;4.61;100.00
59106;BME280;44891;50.204;8.132;2023-02-05T09:10:55;99919.41;;;4.79;100.00
59106;BME280;44891;50.204;8.132;2023-02-05T09:14:59;99913.69;;;4.75;100.00
59106;BME280;44891;50.204;8.132;2023-02-05T09:19:00;99912.94;;;4.83;100.00
59106;BME280;44891;50.204;8.132;2023-02-05T09:23:02;99908.03;;;4.88;100.00
59106;BME280;44891;50.204;8.132;2023-02-05T09:27:04;99898.13;;;4.91;100.00
59106;BME280;44891;50.204;8.132;2023-02-05T09:31:08;99892.28;;;4.98;100.00
59106;BME280;44891;50.204;8.132;2023-02-05T09:35:10;99894.06;;;4.89;100.00
59106;BME280;44891;50.204;8.132;2023-02-05T09:39:12;99894.88;;;4.98;100.00
59106;BME280;44891;50.204;8.132;2023-02-05T09:43:18;99886.59;;;5.02;100.00
59106;BME280;44891;50.204;8.132;2023-02-05T09:47:27;99885.47;;;5.13;100.00
59106;BME280;44891;50.204;8.132;2023-02-05T09:51:33;99829.13;;;4.63;100.00
59106;BME280;44891;50.204;8.132;2023-02-05T09:55:36;99877.94;;;5.02;100.00
59106;BME280;44891;50.204;8.132;2023-02-05T09:59:40;99874.72;;;5.08;100.00
59106;BME280;44891;50.204;8.132;2023-02-05T10:03:44;99865.59;;;5.20;100.00
59106;BME280;44891;50.204;8.132;2023-02-05T10:07:49;99875.38;;;5.18;100.00
59106;BME280;44891;50.204;8.132;2023-02-05T10:11:55;99872.59;;;5.19;100.00
59106;BME280;44891;50.204;8.132;2023-02-05T10:20:27;99870.50;;;5.31;100.00
59106;BME280;44891;50.204;8.132;2023-02-05T10:24:36;99864.31;;;5.32;100.00
59106;BME280;44891;50.204;8.132;2023-02-05T10:28:47;99850.13;;;5.27;100.00
59106;BME280;44891;50.204;8.132;2023-02-05T10:32:55;99850.13;;;5.27;100.00
59106;BME280;44891;50.204;8.132;2023-02-05T10:36:59;99844.28;;;5.25;100.00
59106;BME280;44891;50.204;8.132;2023-02-05T10:41:04;99844.75;;;5.20;100.00
59106;BME280;44891;50.204;8.132;2023-02-05T10:45:12;99839.56;;;5.20;100.00
59106;BME280;44891;50.204;8.132;2023-02-05T10:49:17;99841.19;;;5.29;100.00
59106;BME280;44891;50.204;8.132;2023-02-05T10:53:22;99829.16;;;5.28;100.00
59106;BME280;44891;50.204;8.132;2023-02-05T10:57:27;99819.22;;;5.32;100.00
59106;BME280;44891;50.204;8.132;2023-02-05T11:01:31;99820.50;;;5.28;100.00
59106;BME280;44891;50.204;8.132;2023-02-05T11:05:33;99827.03;;;5.24;100.00
59106;BME280;44891;50.204;8.132;2023-02-05T11:09:37;99823.44;;;5.25;100.00
59106;BME280;44891;50.204;8.132;2023-02-05T11:13:40;99819.84;;;5.26;100.00
59106;BME280;44891;50.204;8.132;2023-02-05T11:17:50;99813.69;;;5.18;100.00
59106;BME280;44891;50.204;8.132;2023-02-05T11:21:53;99817.56;;;5.14;100.00
59106;BME280;44891;50.204;8.132;2023-02-05T11:25:58;99814.84;;;5.16;100.00
59106;BME280;44891;50.204;8.132;2023-02-05T11:30:16;99814.50;;;5.03;100.00
59106;BME280;44891;50.204;8.132;2023-02-05T11:34:18;99807.81;;;5.08;100.00
59106;BME280;44891;50.204;8.132;2023-02-05T11:38:23;99808.31;;;5.04;100.00
59106;BME280;44891;50.204;8.132;2023-02-05T11:42:30;99811.25;;;5.09;100.00
59106;BME280;44891;50.204;8.132;2023-02-05T11:46:33;99816.78;;;5.22;100.00
59106;BME280;44891;50.204;8.132;2023-02-05T11:50:37;99813.19;;;5.23;100.00
59106;BME280;44891;50.204;8.132;2023-02-05T11:54:44;99814.00;;;5.32;100.00
59106;BME280;44891;50.204;8.132;2023-02-05T11:58:57;99812.03;;;5.34;100.00
59106;BME280;44891;50.204;8.132;2023-02-05T12:03:01;99808.63;;;5.33;100.00
59106;BME280;44891;50.204;8.132;2023-02-05T12:07:04;99801.00;;;5.15;100.00
59106;BME280;44891;50.204;8.132;2023-02-05T12:16:00;99797.72;;;5.30;100.00
59106;BME280;44891;50.204;8.132;2023-02-05T12:20:08;99789.75;;;5.23;100.00
59106;BME280;44891;50.204;8.132;2023-02-05T12:28:36;99805.38;;;5.31;100.00
59106;BME280;44891;50.204;8.132;2023-02-05T12:32:43;99806.34;;;5.30;100.00
59106;BME280;44891;50.204;8.132;2023-02-05T12:36:55;99807.00;;;5.32;100.00
59106;BME280;44891;50.204;8.132;2023-02-05T12:41:04;99797.22;;;5.34;100.00
59106;BME280;44891;50.204;8.132;2023-02-05T12:45:16;99800.16;;;5.31;100.00
59106;BME280;44891;50.204;8.132;2023-02-05T12:49:23;99781.44;;;5.19;100.00
59106;BME280;44891;50.204;8.132;2023-02-05T12:57:48;99786.50;;;5.29;100.00
59106;BME280;44891;50.204;8.132;2023-02-05T13:01:52;99784.22;;;5.26;100.00
59106;BME280;44891;50.204;8.132;2023-02-05T13:05:58;99791.88;;;5.19;100.00
59106;BME280;44891;50.204;8.132;2023-02-05T13:10:03;99788.44;;;5.27;100.00
59106;BME280;44891;50.204;8.132;2023-02-05T13:14:07;99795.63;;;5.17;100.00
59106;BME280;44891;50.204;8.132;2023-02-05T13:18:13;99802.63;;;5.16;100.00
59106;BME280;44891;50.204;8.132;2023-02-05T13:22:20;99793.50;;;5.21;100.00
59106;BME280;44891;50.204;8.132;2023-02-05T13:26:41;99803.75;;;5.30;100.00
59106;BME280;44891;50.204;8.132;2023-02-05T13:31:02;99801.09;;;5.55;100.00
59106;BME280;44891;50.204;8.132;2023-02-05T13:35:06;99800.81;;;5.41;100.00
59106;BME280;44891;50.204;8.132;2023-02-05T13:39:15;99788.75;;;5.40;100.00
59106;BME280;44891;50.204;8.132;2023-02-05T13:43:32;99794.78;;;5.33;100.00
59106;BME280;44891;50.204;8.132;2023-02-05T13:47:45;99792.31;;;5.39;100.00
59106;BME280;44891;50.204;8.132;2023-02-05T13:51:53;99794.28;;;5.45;100.00
59106;BME280;44891;50.204;8.132;2023-02-05T13:56:08;99794.41;;;5.60;100.00
59106;BME280;44891;50.204;8.132;2023-02-05T14:00:15;99807.84;;;5.80;100.00
59106;BME280;44891;50.204;8.132;2023-02-05T14:04:19;99801.88;;;5.71;100.00
59106;BME280;44891;50.204;8.132;2023-02-05T14:08:23;99801.56;;;5.75;100.00
59106;BME280;44891;50.204;8.132;2023-02-05T14:12:28;99801.56;;;5.75;100.00
59106;BME280;44891;50.204;8.132;2023-02-05T14:16:31;99801.69;;;5.73;100.00
59106;BME280;44891;50.204;8.132;2023-02-05T14:20:35;99810.59;;;5.87;100.00
59106;BME280;44891;50.204;8.132;2023-02-05T14:24:47;99808.53;;;5.82;100.00
59106;BME280;44891;50.204;8.132;2023-02-05T14:28:51;99810.16;;;5.83;100.00
59106;BME280;44891;50.204;8.132;2023-02-05T14:32:57;99816.53;;;5.72;100.00
59106;BME280;44891;50.204;8.132;2023-02-05T14:36:59;99830.41;;;5.57;100.00
59106;BME280;44891;50.204;8.132;2023-02-05T14:41:02;99834.31;;;5.53;100.00
59106;BME280;44891;50.204;8.132;2023-02-05T14:45:10;99843.47;;;5.32;100.00
59106;BME280;44891;50.204;8.132;2023-02-05T14:49:19;99845.75;;;5.19;100.00
59106;BME280;44891;50.204;8.132;2023-02-05T14:53:22;99849.00;;;5.13;100.00
59106;BME280;44891;50.204;8.132;2023-02-05T14:57:27;99857.97;;;5.18;100.00
59106;BME280;44891;50.204;8.132;2023-02-05T15:01:42;99866.13;;;5.15;100.00
59106;BME280;44891;50.204;8.132;2023-02-05T15:05:46;99860.38;;;5.20;100.00
59106;BME280;44891;50.204;8.132;2023-02-05T15:09:50;99884.34;;;5.15;100.00
59106;BME280;44891;50.204;8.132;2023-02-05T15:18:20;99885.63;;;5.11;100.00
59106;BME280;44891;50.204;8.132;2023-02-05T15:22:25;99885.63;;;5.11;100.00
59106;BME280;44891;50.204;8.132;2023-02-05T15:26:33;99892.28;;;5.06;100.00
59106;BME280;44891;50.204;8.132;2023-02-05T15:30:44;99897.31;;;4.99;100.00
59106;BME280;44891;50.204;8.132;2023-02-05T15:34:48;99892.63;;;5.11;100.00
59106;BME280;44891;50.204;8.132;2023-02-05T15:38:57;99896.69;;;5.05;100.00
59106;BME280;44891;50.204;8.132;2023-02-05T15:43:08;99905.94;;;5.00;100.00
59106;BME280;44891;50.204;8.132;2023-02-05T15:47:13;99909.19;;;5.02;100.00
59106;BME280;44891;50.204;8.132;2023-02-05T15:51:20;99906.94;;;5.07;100.00
59106;BME280;44891;50.204;8.132;2023-02-05T15:55:26;99912.66;;;5.02;100.00
59106;BME280;44891;50.204;8.132;2023-02-05T15:59:28;99911.78;;;4.94;100.00
59106;BME280;44891;50.204;8.132;2023-02-05T16:03:32;99916.69;;;4.97;100.00
59106;BME280;44891;50.204;8.132;2023-02-05T16:07:39;99934.75;;;4.98;100.00
59106;BME280;44891;50.204;8.132;2023-02-05T16:11:41;99949.91;;;5.03;100.00
59106;BME280;44891;50.204;8.132;2023-02-05T16:15:45;99958.03;;;5.00;100.00
59106;BME280;44891;50.204;8.132;2023-02-05T16:19:49;99970.22;;;4.99;100.00
59106;BME280;44891;50.204;8.132;2023-02-05T16:23:54;99976.22;;;4.91;100.00
59106;BME280;44891;50.204;8.132;2023-02-05T16:27:58;99987.28;;;4.94;100.00
59106;BME280;44891;50.204;8.132;2023-02-05T16:32:02;99997.06;;;4.91;100.00
59106;BME280;44891;50.204;8.132;2023-02-05T16:36:06;99993.31;;;4.94;100.00
59106;BME280;44891;50.204;8.132;2023-02-05T16:40:15;100009.63;;;4.96;100.00
59106;BME280;44891;50.204;8.132;2023-02-05T16:44:29;100000.28;;;4.85;100.00
59106;BME280;44891;50.204;8.132;2023-02-05T16:48:32;100015.59;;;4.88;100.00
59106;BME280;44891;50.204;8.132;2023-02-05T16:52:35;100015.59;;;4.88;100.00
59106;BME280;44891;50.204;8.132;2023-02-05T16:56:42;100022.78;;;4.95;100.00
59106;BME280;44891;50.204;8.132;2023-02-05T17:00:55;100028.50;;;4.98;100.00
59106;BME280;44891;50.204;8.132;2023-02-05T17:04:57;100030.59;;;4.95;100.00
59106;BME280;44891;50.204;8.132;2023-02-05T17:09:01;100050.75;;;4.93;100.00
59106;BME280;44891;50.204;8.132;2023-02-05T17:13:09;100053.34;;;4.84;100.00
59106;BME280;44891;50.204;8.132;2023-02-05T17:17:26;100063.63;;;4.94;100.00
59106;BME280;44891;50.204;8.132;2023-02-05T17:21:29;100062.63;;;4.95;100.00
59106;BME280;44891;50.204;8.132;2023-02-05T17:25:33;100074.53;;;4.98;100.00
59106;BME280;44891;50.204;8.132;2023-02-05T17:29:37;100072.75;;;4.98;100.00
59106;BME280;44891;50.204;8.132;2023-02-05T17:33:38;100077.63;;;5.01;100.00
59106;BME280;44891;50.204;8.132;2023-02-05T17:37:40;100087.09;;;5.02;100.00
59106;BME280;44891;50.204;8.132;2023-02-05T17:41:42;100086.22;;;4.94;100.00
59106;BME280;44891;50.204;8.132;2023-02-05T17:46:03;100097.81;;;4.99;100.00
59106;BME280;44891;50.204;8.132;2023-02-05T17:50:05;100110.63;;;4.93;100.00
59106;BME280;44891;50.204;8.132;2023-02-05T17:54:10;100109.50;;;4.95;100.00
59106;BME280;44891;50.204;8.132;2023-02-05T17:58:12;100111.66;;;4.74;100.00
59106;BME280;44891;50.204;8.132;2023-02-05T18:02:15;100113.66;;;4.80;100.00
59106;BME280;44891;50.204;8.132;2023-02-05T18:06:17;100121.28;;;4.73;100.00
59106;BME280;44891;50.204;8.132;2023-02-05T18:10:20;100115.16;;;4.82;100.00
59106;BME280;44891;50.204;8.132;2023-02-05T18:14:23;100124.41;;;4.77;100.00
59106;BME280;44891;50.204;8.132;2023-02-05T18:18:26;100131.31;;;4.68;100.00
59106;BME280;44891;50.204;8.132;2023-02-05T18:22:28;100140.47;;;4.72;100.00
59106;BME280;44891;50.204;8.132;2023-02-05T18:26:30;100134.59;;;4.70;100.00
59106;BME280;44891;50.204;8.132;2023-02-05T18:30:32;100130.03;;;4.72;100.00
59106;BME280;44891;50.204;8.132;2023-02-05T18:34:35;100132.34;;;4.75;100.00
59106;BME280;44891;50.204;8.132;2023-02-05T18:38:39;100141.31;;;4.81;100.00
59106;BME280;44891;50.204;8.132;2023-02-05T18:42:42;100130.47;;;4.85;100.00
59106;BME280;44891;50.204;8.132;2023-02-05T18:46:46;100132.75;;;4.88;100.00
59106;BME280;44891;50.204;8.132;2023-02-05T18:50:49;100136.53;;;4.94;100.00
59106;BME280;44891;50.204;8.132;2023-02-05T18:54:51;100146.88;;;4.86;100.00
59106;BME280;44891;50.204;8.132;2023-02-05T18:58:54;100153.72;;;4.87;100.00
59106;BME280;44891;50.204;8.132;2023-02-05T19:02:58;100141.22;;;4.90;100.00
59106;BME280;44891;50.204;8.132;2023-02-05T19:07:01;100149.25;;;4.71;100.00
59106;BME280;44891;50.204;8.132;2023-02-05T19:11:06;100148.72;;;4.68;100.00
59106;BME280;44891;50.204;8.132;2023-02-05T19:15:08;100134.88;;;4.67;100.00
59106;BME280;44891;50.204;8.132;2023-02-05T19:19:11;100134.44;;;4.72;100.00
59106;BME280;44891;50.204;8.132;2023-02-05T19:23:14;100156.41;;;4.69;100.00
59106;BME280;44891;50.204;8.132;2023-02-05T19:27:16;100159.00;;;4.69;100.00
59106;BME280;44891;50.204;8.132;2023-02-05T19:31:18;100165.69;;;4.72;100.00
59106;BME280;44891;50.204;8.132;2023-02-05T19:35:19;100164.03;;;4.71;100.00
59106;BME280;44891;50.204;8.132;2023-02-05T19:39:23;100165.84;;;4.70;100.00
59106;BME280;44891;50.204;8.132;2023-02-05T19:43:25;100170.06;;;4.71;100.00
59106;BME280;44891;50.204;8.132;2023-02-05T19:47:26;100193.50;;;4.71;100.00
59106;BME280;44891;50.204;8.132;2023-02-05T19:51:28;100192.34;;;4.74;100.00
59106;BME280;44891;50.204;8.132;2023-02-05T19:55:32;100184.09;;;4.78;100.00
59106;BME280;44891;50.204;8.132;2023-02-05T19:59:34;100194.75;;;4.67;100.00
59106;BME280;44891;50.204;8.132;2023-02-05T20:03:35;100187.03;;;4.57;100.00
59106;BME280;44891;50.204;8.132;2023-02-05T20:07:37;100191.34;;;4.67;100.00
59106;BME280;44891;50.204;8.132;2023-02-05T20:11:41;100192.75;;;4.61;100.00
59106;BME280;44891;50.204;8.132;2023-02-05T20:15:43;100190.34;;;4.68;100.00
59106;BME280;44891;50.204;8.132;2023-02-05T20:19:45;100196.31;;;4.60;100.00
59106;BME280;44891;50.204;8.132;2023-02-05T20:23:47;100193.66;;;4.52;100.00
59106;BME280;44891;50.204;8.132;2023-02-05T20:27:51;100199.69;;;4.52;100.00
59106;BME280;44891;50.204;8.132;2023-02-05T20:31:52;100212.25;;;4.57;100.00
59106;BME280;44891;50.204;8.132;2023-02-05T20:35:54;100214.91;;;4.47;100.00
59106;BME280;44891;50.204;8.132;2023-02-05T20:39:56;100228.16;;;4.54;100.00
59106;BME280;44891;50.204;8.132;2023-02-05T20:43:59;100230.53;;;4.47;100.00
59106;BME280;44891;50.204;8.132;2023-02-05T20:48:01;100230.38;;;4.49;100.00
59106;BME280;44891;50.204;8.132;2023-02-05T20:52:03;100226.72;;;4.42;100.00
59106;BME280;44891;50.204;8.132;2023-02-05T20:56:06;100233.72;;;4.41;100.00
59106;BME280;44891;50.204;8.132;2023-02-05T21:00:11;100232.53;;;4.35;100.00
59106;BME280;44891;50.204;8.132;2023-02-05T21:04:13;100235.44;;;4.32;100.00
59106;BME280;44891;50.204;8.132;2023-02-05T21:08:14;100233.22;;;4.38;100.00
59106;BME280;44891;50.204;8.132;2023-02-05T21:12:16;100235.50;;;4.41;100.00
59106;BME280;44891;50.204;8.132;2023-02-05T21:16:20;100238.78;;;4.43;100.00
59106;BME280;44891;50.204;8.132;2023-02-05T21:20:22;100237.00;;;4.43;100.00
59106;BME280;44891;50.204;8.132;2023-02-05T21:24:24;100238.34;;;4.47;100.00
59106;BME280;44891;50.204;8.132;2023-02-05T21:28:26;100236.84;;;4.45;100.00
59106;BME280;44891;50.204;8.132;2023-02-05T21:32:30;100244.28;;;4.40;100.00
59106;BME280;44891;50.204;8.132;2023-02-05T21:36:32;100243.63;;;4.38;100.00
59106;BME280;44891;50.204;8.132;2023-02-05T21:40:35;100258.91;;;4.41;100.00
59106;BME280;44891;50.204;8.132;2023-02-05T21:44:37;100254.41;;;4.43;100.00
59106;BME280;44891;50.204;8.132;2023-02-05T21:48:41;100269.41;;;4.49;100.00
59106;BME280;44891;50.204;8.132;2023-02-05T21:52:43;100268.06;;;4.45;100.00